Time;durP1;ratioP1;P1;durP2;ratioP2;P2;SDS_P1;SDS_P2;PMS_P1;PMS_P2;Temp;Humidity;BMP_temperature;BMP_pressure;BME280_temperature;BME280_humidity;BME280_pressure;Samples;Min_cycle;Max_cycle;Signal;HPM_P1;HPM_P2
2023/03/23 00:01:03;;;;;;;1.67;1.50;;;18.80;45.70;;;;;;4913283;28;21060;-72
2023/03/23 00:03:31;;;;;;;1.27;1.13;;;18.80;45.70;;;;;;4925407;28;20552;-72
2023/03/23 00:06:04;;;;;;;1.40;1.20;;;18.80;45.70;;;;;;4920267;28;20515;-73
2023/03/23 00:08:32;;;;;;;1.20;1.10;;;18.80;45.70;;;;;;4921154;28;20423;-71
2023/03/23 00:10:57;;;;;;;1.30;1.20;;;18.80;45.70;;;;;;4919748;28;20443;-73
2023/03/23 00:13:24;;;;;;;1.37;1.27;;;18.80;45.70;;;;;;4920490;28;20814;-72
2023/03/23 00:15:51;;;;;;;1.10;1.00;;;18.80;45.80;;;;;;4918717;29;20215;-73
2023/03/23 00:18:20;;;;;;;1.30;1.20;;;18.80;45.70;;;;;;4917600;28;20439;-72
2023/03/23 00:20:50;;;;;;;1.80;1.27;;;18.80;45.70;;;;;;4914634;28;20439;-73
2023/03/23 00:23:21;;;;;;;1.30;1.20;;;18.80;45.70;;;;;;4920183;28;20431;-72
2023/03/23 00:25:48;;;;;;;1.00;0.97;;;18.80;45.80;;;;;;4911697;28;20451;-72
2023/03/23 00:28:14;;;;;;;1.20;1.10;;;18.80;45.70;;;;;;4916375;28;20474;-71
2023/03/23 00:30:41;;;;;;;1.07;1.00;;;18.80;45.70;;;;;;4915504;28;20983;-73
2023/03/23 00:33:08;;;;;;;1.47;1.20;;;18.80;45.70;;;;;;4917772;28;20444;-72
2023/03/23 00:35:35;;;;;;;1.23;1.13;;;18.80;45.70;;;;;;4915768;28;20523;-72
2023/03/23 00:38:01;;;;;;;1.20;1.10;;;18.80;45.80;;;;;;4918585;28;20459;-72
2023/03/23 00:40:27;;;;;;;1.67;1.07;;;18.80;45.80;;;;;;4918179;28;20562;-72
2023/03/23 00:42:53;;;;;;;1.23;1.13;;;18.80;45.80;;;;;;4920257;28;20517;-73
2023/03/23 00:45:18;;;;;;;2.83;1.20;;;18.80;45.70;;;;;;4913673;28;20236;-73
2023/03/23 00:47:46;;;;;;;1.40;1.30;;;18.80;45.80;;;;;;4917420;28;20226;-73
2023/03/23 00:50:13;;;;;;;1.80;1.23;;;18.80;45.80;;;;;;4918517;28;20249;-73
2023/03/23 00:52:39;;;;;;;1.20;1.10;;;18.80;45.80;;;;;;4918141;29;20472;-72
2023/03/23 00:55:06;;;;;;;1.10;1.00;;;18.80;45.80;;;;;;4915301;29;20927;-72
2023/03/23 00:57:31;;;;;;;1.20;1.10;;;18.80;45.80;;;;;;4914922;28;20462;-73
2023/03/23 00:59:57;;;;;;;1.30;1.20;;;18.80;45.80;;;;;;4916782;28;20509;-72
2023/03/23 01:02:24;;;;;;;1.10;1.00;;;18.80;45.80;;;;;;4913047;28;20230;-72
2023/03/23 01:04:52;;;;;;;1.87;1.07;;;18.80;45.80;;;;;;4918347;28;20722;-73
2023/03/23 01:07:22;;;;;;;1.10;1.00;;;18.80;45.80;;;;;;4913921;28;20511;-72
2023/03/23 01:09:48;;;;;;;1.20;1.10;;;18.80;45.80;;;;;;4913993;29;20450;-73
2023/03/23 01:12:14;;;;;;;1.20;1.10;;;18.80;45.80;;;;;;4912216;28;20479;-72
2023/03/23 01:14:40;;;;;;;1.20;1.10;;;18.80;45.80;;;;;;4914464;28;20226;-72
2023/03/23 01:17:06;;;;;;;1.73;1.63;;;18.80;45.80;;;;;;4916613;28;20453;-71
2023/03/23 01:19:32;;;;;;;1.27;1.17;;;18.80;45.80;;;;;;4917822;28;20427;-72
2023/03/23 01:21:57;;;;;;;1.10;1.00;;;18.80;46.60;;;;;;4918617;28;20226;-73
2023/03/23 01:24:23;;;;;;;0.97;0.93;;;18.80;45.80;;;;;;4921061;29;20868;-72
2023/03/23 01:26:48;;;;;;;0.90;0.90;;;18.80;45.80;;;;;;4921812;28;20590;-72
2023/03/23 01:29:14;;;;;;;1.17;1.07;;;18.80;45.80;;;;;;4919027;28;20241;-71
2023/03/23 01:31:42;;;;;;;1.20;1.10;;;18.70;45.80;;;;;;4916117;28;20238;-72
2023/03/23 01:34:08;;;;;;;1.20;1.10;;;18.80;45.80;;;;;;4921948;28;20542;-72
2023/03/23 01:36:33;;;;;;;1.27;1.17;;;18.70;45.80;;;;;;4917002;28;20660;-72
2023/03/23 01:39:02;;;;;;;1.00;1.00;;;18.70;45.80;;;;;;4923133;28;20518;-72
2023/03/23 01:41:28;;;;;;;1.30;1.20;;;18.80;45.80;;;;;;4913279;28;20261;-72
2023/03/23 01:43:58;;;;;;;1.27;1.17;;;18.80;45.80;;;;;;4915707;28;21423;-71
2023/03/23 01:46:29;;;;;;;1.27;0.90;;;18.80;45.80;;;;;;4914815;28;20234;-72
2023/03/23 01:48:57;;;;;;;1.97;1.00;;;18.80;45.90;;;;;;4917299;28;20441;-73
2023/03/23 01:51:25;;;;;;;1.30;1.20;;;18.80;45.80;;;;;;4916387;29;20950;-71
2023/03/23 01:53:58;;;;;;;1.30;1.20;;;18.70;45.80;;;;;;4919209;29;20447;-72
2023/03/23 01:56:29;;;;;;;1.00;0.90;;;18.80;45.80;;;;;;4920581;28;20956;-73
2023/03/23 01:58:56;;;;;;;0.90;0.90;;;18.80;45.80;;;;;;4903518;29;21046;-72
2023/03/23 02:01:24;;;;;;;1.27;1.17;;;18.70;45.90;;;;;;4916684;28;20975;-72
2023/03/23 02:03:51;;;;;;;1.20;0.97;;;18.80;45.90;;;;;;4921989;28;20442;-71
2023/03/23 02:06:17;;;;;;;1.10;0.90;;;18.70;45.80;;;;;;4915154;28;20501;-72
2023/03/23 02:08:44;;;;;;;1.17;1.07;;;18.70;45.80;;;;;;4921289;28;20998;-72
2023/03/23 02:11:18;;;;;;;1.10;1.00;;;18.70;45.90;;;;;;4917203;29;20736;-72
2023/03/23 02:13:45;;;;;;;1.20;1.10;;;18.80;45.90;;;;;;4918582;28;20455;-72
2023/03/23 02:16:33;;;;;;;1.10;1.00;;;18.70;45.80;;;;;;4918939;28;20474;-72
2023/03/23 02:19:20;;;;;;;1.23;0.97;;;18.80;46.00;;;;;;4921132;28;20418;-71
2023/03/23 02:22:00;;;;;;;1.30;1.20;;;18.70;45.90;;;;;;4918354;28;20456;-72
2023/03/23 02:24:51;;;;;;;1.03;0.97;;;18.70;45.90;;;;;;4912282;29;21003;-71
2023/03/23 02:27:28;;;;;;;1.23;1.13;;;18.70;45.90;;;;;;4917977;28;20544;-73
2023/03/23 02:30:20;;;;;;;1.10;1.00;;;18.70;45.90;;;;;;4915315;29;20502;-71
2023/03/23 02:33:04;;;;;;;1.13;1.03;;;18.70;45.90;;;;;;4904891;29;20473;-72
2023/03/23 02:35:35;;;;;;;1.00;0.90;;;18.70;46.00;;;;;;4917866;28;21219;-72
2023/03/23 02:38:06;;;;;;;1.10;1.00;;;18.70;45.90;;;;;;4911847;28;20451;-72
2023/03/23 02:40:50;;;;;;;1.77;1.00;;;18.70;45.90;;;;;;4916487;28;20432;-72
2023/03/23 02:43:23;;;;;;;1.30;1.20;;;18.70;45.90;;;;;;4924008;28;20557;-72
2023/03/23 02:45:51;;;;;;;2.30;0.90;;;18.70;45.90;;;;;;4916403;28;20427;-72
2023/03/23 02:48:21;;;;;;;1.00;0.90;;;18.70;45.90;;;;;;4922245;29;20686;-71
2023/03/23 02:50:51;;;;;;;1.03;1.00;;;18.70;45.90;;;;;;4914216;29;20432;-73
2023/03/23 02:53:23;;;;;;;1.60;1.50;;;18.70;45.90;;;;;;4920876;28;20484;-73
2023/03/23 02:55:54;;;;;;;0.90;0.90;;;18.70;46.00;;;;;;4916442;29;20420;-73
2023/03/23 02:58:21;;;;;;;1.23;1.13;;;18.70;45.90;;;;;;4923232;28;20789;-72
2023/03/23 03:00:49;;;;;;;1.00;0.90;;;18.70;46.00;;;;;;4900179;29;20439;-72
2023/03/23 03:03:21;;;;;;;1.10;1.00;;;18.70;45.90;;;;;;4919513;29;20435;-71
2023/03/23 03:06:07;;;;;;;1.03;0.90;;;18.70;46.00;;;;;;4906420;28;20891;-72
2023/03/23 03:09:11;;;;;;;1.10;1.00;;;18.70;46.00;;;;;;4923612;28;20912;-72
2023/03/23 03:11:42;;;;;;;1.00;0.90;;;18.70;46.00;;;;;;4881437;29;20449;-72
2023/03/23 03:14:17;;;;;;;1.10;0.90;;;18.70;46.00;;;;;;4879048;29;21015;-72
2023/03/23 03:17:03;;;;;;;1.20;1.10;;;18.70;46.00;;;;;;4901380;28;20553;-72
2023/03/23 03:19:40;;;;;;;0.80;0.80;;;18.70;46.00;;;;;;4919160;29;20447;-71
2023/03/23 03:22:07;;;;;;;0.90;0.90;;;18.70;46.00;;;;;;4920856;28;20468;-73
2023/03/23 03:24:37;;;;;;;1.00;0.90;;;18.70;46.00;;;;;;4919974;29;20427;-73
2023/03/23 03:27:06;;;;;;;1.00;0.90;;;18.70;46.00;;;;;;4920098;29;20454;-72
2023/03/23 03:29:34;;;;;;;1.23;1.13;;;18.70;46.00;;;;;;4921600;29;20453;-73
2023/03/23 03:32:05;;;;;;;1.20;1.00;;;18.70;46.00;;;;;;4920057;28;20563;-73
2023/03/23 03:34:31;;;;;;;0.97;0.90;;;18.70;46.00;;;;;;4921252;29;20424;-72
2023/03/23 03:36:58;;;;;;;1.10;1.00;;;18.70;46.00;;;;;;4925122;28;20442;-72
2023/03/23 03:39:25;;;;;;;0.90;0.90;;;18.70;46.00;;;;;;4917883;28;20536;-74
2023/03/23 03:41:51;;;;;;;1.93;1.00;;;18.70;46.00;;;;;;4919921;28;20970;-73
2023/03/23 03:44:17;;;;;;;0.87;0.87;;;18.70;46.00;;;;;;4921741;28;20487;-71
2023/03/23 03:46:43;;;;;;;1.10;1.00;;;18.70;46.00;;;;;;4918023;28;20353;-72
2023/03/23 03:49:12;;;;;;;1.00;0.80;;;18.70;46.00;;;;;;4916755;28;20260;-72
2023/03/23 03:51:38;;;;;;;1.10;1.00;;;18.70;46.00;;;;;;4923407;28;20486;-71
2023/03/23 03:54:04;;;;;;;1.10;1.00;;;18.70;46.00;;;;;;4920587;28;20438;-73
2023/03/23 03:56:31;;;;;;;0.70;0.70;;;18.70;46.00;;;;;;4917132;28;20476;-72
2023/03/23 03:58:57;;;;;;;1.00;1.00;;;18.70;46.00;;;;;;4924432;29;21055;-73
2023/03/23 04:01:23;;;;;;;1.20;1.10;;;18.70;46.10;;;;;;4918531;28;20431;-72
2023/03/23 04:03:50;;;;;;;1.10;1.00;;;18.70;46.10;;;;;;4920892;28;20222;-72
2023/03/23 04:06:16;;;;;;;0.80;0.80;;;18.70;46.00;;;;;;4918132;28;20463;-72
2023/03/23 04:08:42;;;;;;;1.10;1.00;;;18.70;46.10;;;;;;4917659;28;20463;-72
2023/03/23 04:11:10;;;;;;;1.40;1.07;;;18.70;46.00;;;;;;4919735;28;20482;-72
2023/03/23 04:13:35;;;;;;;1.20;1.10;;;18.70;46.10;;;;;;4921704;28;20958;-73
2023/03/23 04:16:01;;;;;;;1.80;1.00;;;18.70;46.10;;;;;;4918231;29;20428;-72
2023/03/23 04:18:28;;;;;;;1.00;0.90;;;18.70;46.10;;;;;;4923428;28;20258;-73
2023/03/23 04:20:58;;;;;;;1.27;1.17;;;18.70;46.10;;;;;;4922532;28;20490;-73
2023/03/23 04:23:25;;;;;;;1.00;0.90;;;18.70;46.10;;;;;;4924546;28;20583;-73
2023/03/23 04:25:52;;;;;;;1.00;0.90;;;18.70;46.00;;;;;;4915867;28;20420;-73
2023/03/23 04:28:18;;;;;;;1.17;1.07;;;18.70;46.10;;;;;;4917431;28;20519;-73
2023/03/23 04:30:44;;;;;;;1.23;1.13;;;18.70;46.10;;;;;;4918609;28;20859;-73
2023/03/23 04:33:15;;;;;;;1.00;1.00;;;18.70;46.10;;;;;;4920488;28;20801;-73
2023/03/23 04:35:42;;;;;;;1.00;0.90;;;18.70;46.10;;;;;;4918647;28;20467;-73
2023/03/23 04:38:08;;;;;;;1.10;1.00;;;18.70;46.10;;;;;;4898631;29;20535;-73
2023/03/23 04:40:38;;;;;;;1.00;0.90;;;18.70;46.10;;;;;;4893890;29;20440;-72
2023/03/23 04:43:05;;;;;;;0.90;0.90;;;18.70;46.10;;;;;;4898030;29;20447;-72
2023/03/23 04:45:32;;;;;;;0.80;0.80;;;18.70;46.10;;;;;;4900066;29;20464;-76
2023/03/23 04:47:58;;;;;;;1.20;1.10;;;18.70;46.10;;;;;;4906739;29;21010;-71
2023/03/23 04:50:30;;;;;;;1.13;1.00;;;18.70;46.10;;;;;;4902387;28;20512;-72
2023/03/23 04:52:57;;;;;;;0.93;0.93;;;18.70;46.00;;;;;;4903967;29;20237;-72
2023/03/23 04:55:25;;;;;;;1.00;0.90;;;18.70;46.10;;;;;;4898187;28;21012;-72
2023/03/23 04:57:50;;;;;;;0.87;0.87;;;18.70;46.00;;;;;;4901953;29;21302;-72
2023/03/23 05:00:17;;;;;;;1.10;1.00;;;18.70;46.00;;;;;;4897535;29;20465;-72
2023/03/23 05:02:46;;;;;;;0.90;0.90;;;18.70;46.00;;;;;;4898613;29;20226;-72
2023/03/23 05:05:14;;;;;;;1.30;1.10;;;18.70;46.00;;;;;;4894774;29;20835;-72
2023/03/23 05:07:40;;;;;;;1.07;1.00;;;18.80;46.10;;;;;;4876084;29;20464;-72
2023/03/23 05:10:10;;;;;;;0.90;0.90;;;18.70;46.00;;;;;;4900231;28;20444;-72
2023/03/23 05:12:36;;;;;;;1.03;0.93;;;18.80;46.10;;;;;;4902597;29;20440;-72
2023/03/23 05:15:01;;;;;;;1.00;0.90;;;18.70;46.00;;;;;;4901446;28;20954;-72
2023/03/23 05:17:29;;;;;;;0.90;0.80;;;18.80;46.10;;;;;;4899668;29;20246;-72
2023/03/23 05:19:56;;;;;;;1.10;1.00;;;18.80;46.10;;;;;;4901897;29;20718;-72
2023/03/23 05:22:23;;;;;;;0.90;0.90;;;18.70;46.00;;;;;;4895150;29;20457;-73
2023/03/23 05:24:51;;;;;;;1.13;1.00;;;18.70;46.00;;;;;;4896755;28;20412;-72
2023/03/23 05:27:18;;;;;;;1.00;1.00;;;18.80;46.10;;;;;;4895350;29;21211;-72
2023/03/23 05:29:45;;;;;;;0.70;0.70;;;18.80;46.00;;;;;;4896004;29;20469;-73
2023/03/23 05:32:11;;;;;;;0.93;0.90;;;18.70;46.70;;;;;;4880687;28;20468;-76
2023/03/23 05:34:37;;;;;;;0.97;0.90;;;18.80;46.00;;;;;;4896755;29;20449;-75
2023/03/23 05:37:03;;;;;;;1.10;1.00;;;18.80;46.00;;;;;;4902886;28;20792;-74
2023/03/23 05:39:30;;;;;;;1.23;1.13;;;18.80;46.00;;;;;;4912761;28;20233;-78
2023/03/23 05:41:56;;;;;;;0.80;0.80;;;18.80;46.10;;;;;;4920278;28;21101;-73
2023/03/23 05:44:22;;;;;;;0.80;0.80;;;18.80;46.00;;;;;;4918054;28;20439;-72
2023/03/23 05:46:48;;;;;;;1.07;0.97;;;18.80;45.90;;;;;;4901058;28;20266;-72
2023/03/23 05:49:16;;;;;;;0.83;0.80;;;18.80;46.00;;;;;;4894663;28;20234;-73
2023/03/23 05:51:42;;;;;;;0.90;0.90;;;18.80;45.90;;;;;;4894149;29;21087;-72
2023/03/23 05:54:08;;;;;;;1.00;0.90;;;18.80;46.00;;;;;;4887467;29;20439;-74
2023/03/23 05:56:34;;;;;;;0.90;0.90;;;18.80;46.00;;;;;;4891800;28;20436;-72
2023/03/23 05:59:00;;;;;;;1.13;0.83;;;18.80;46.00;;;;;;4891217;28;20454;-72
2023/03/23 06:01:26;;;;;;;0.80;0.80;;;18.80;46.10;;;;;;4889702;28;20219;-73
2023/03/23 06:03:53;;;;;;;0.83;0.83;;;18.80;46.00;;;;;;4892095;29;20434;-72
2023/03/23 06:06:20;;;;;;;0.90;0.90;;;18.80;46.00;;;;;;4888876;29;20427;-72
2023/03/23 06:08:46;;;;;;;1.10;1.00;;;18.80;46.00;;;;;;4890698;28;20469;-71
2023/03/23 06:11:13;;;;;;;1.00;0.80;;;18.80;46.00;;;;;;4892044;28;20466;-71
2023/03/23 06:13:38;;;;;;;0.80;0.80;;;18.80;46.00;;;;;;4894974;29;20233;-73
2023/03/23 06:16:04;;;;;;;0.87;0.87;;;18.80;46.00;;;;;;4891460;28;20454;-70
2023/03/23 06:18:33;;;;;;;1.10;1.00;;;18.80;46.00;;;;;;4893115;28;20230;-71
2023/03/23 06:20:59;;;;;;;0.80;0.80;;;18.80;46.00;;;;;;4896204;28;20244;-70
2023/03/23 06:23:26;;;;;;;1.10;1.00;;;18.80;46.00;;;;;;4895981;28;21166;-71
2023/03/23 06:25:56;;;;;;;1.20;1.10;;;18.80;46.00;;;;;;4897659;28;20439;-71
2023/03/23 06:28:22;;;;;;;0.93;0.90;;;18.80;46.00;;;;;;4897480;29;21722;-71
2023/03/23 06:30:47;;;;;;;0.83;0.83;;;18.80;46.00;;;;;;4901498;29;21056;-72
2023/03/23 06:33:13;;;;;;;1.17;0.80;;;18.80;45.90;;;;;;4897213;28;20234;-71
2023/03/23 06:35:39;;;;;;;0.90;0.80;;;18.80;45.90;;;;;;4898754;28;20214;-72
2023/03/23 06:38:04;;;;;;;0.80;0.80;;;18.80;45.90;;;;;;4898173;28;20602;-71
2023/03/23 06:40:30;;;;;;;1.17;1.07;;;18.80;46.00;;;;;;4897098;28;20226;-71
2023/03/23 06:42:59;;;;;;;0.97;0.93;;;18.80;46.00;;;;;;4897141;28;20430;-71
2023/03/23 06:45:25;;;;;;;0.90;0.90;;;18.80;46.00;;;;;;4896381;28;20238;-71
2023/03/23 06:47:51;;;;;;;2.70;1.20;;;18.80;45.90;;;;;;4893551;28;21296;-71
2023/03/23 06:50:16;;;;;;;1.00;0.90;;;18.80;45.90;;;;;;4898312;28;20439;-72
2023/03/23 06:52:49;;;;;;;1.13;1.00;;;18.90;45.90;;;;;;4894281;28;20305;-72
2023/03/23 06:55:15;;;;;;;0.97;0.90;;;18.80;45.80;;;;;;4899063;28;20218;-72
2023/03/23 06:57:42;;;;;;;1.07;0.70;;;18.90;45.90;;;;;;4896277;28;20465;-72
2023/03/23 07:00:12;;;;;;;1.00;0.90;;;18.80;45.80;;;;;;4906789;28;20938;-72
2023/03/23 07:02:38;;;;;;;1.00;0.90;;;18.90;45.90;;;;;;4882443;28;20435;-72
2023/03/23 07:05:04;;;;;;;1.00;0.90;;;18.90;46.00;;;;;;4907886;29;20973;-71
2023/03/23 07:07:30;;;;;;;1.13;1.03;;;18.80;45.90;;;;;;4907614;28;20439;-72
2023/03/23 07:09:56;;;;;;;1.00;0.90;;;18.80;46.00;;;;;;4911632;28;20426;-71
2023/03/23 07:12:22;;;;;;;0.93;0.93;;;18.80;46.00;;;;;;4909104;28;20700;-72
2023/03/23 07:14:48;;;;;;;1.00;0.80;;;18.80;46.00;;;;;;4910215;28;20314;-71
2023/03/23 07:17:13;;;;;;;2.13;0.90;;;18.80;46.00;;;;;;4908222;28;20439;-72
2023/03/23 07:19:40;;;;;;;1.83;1.07;;;18.90;46.00;;;;;;4907963;28;20222;-72
2023/03/23 07:22:07;;;;;;;2.13;1.00;;;18.90;46.00;;;;;;4905868;28;20715;-71
2023/03/23 07:24:33;;;;;;;1.07;0.97;;;18.80;46.00;;;;;;4911640;28;20501;-72
2023/03/23 07:26:59;;;;;;;0.90;0.83;;;18.80;45.90;;;;;;4909884;28;21237;-72
2023/03/23 07:29:25;;;;;;;1.20;1.10;;;18.80;46.00;;;;;;4907982;28;20424;-72
2023/03/23 07:31:52;;;;;;;1.00;0.90;;;18.80;46.00;;;;;;4909320;28;20503;-72
2023/03/23 07:34:18;;;;;;;0.80;0.80;;;18.90;46.00;;;;;;4909122;28;20249;-72
2023/03/23 07:36:45;;;;;;;1.77;1.00;;;18.80;45.90;;;;;;4906502;28;20523;-72
2023/03/23 07:39:11;;;;;;;2.00;0.80;;;18.90;46.00;;;;;;4903003;28;21313;-72
2023/03/23 07:41:37;;;;;;;1.10;0.80;;;18.90;46.00;;;;;;4904668;28;20800;-72
2023/03/23 07:44:03;;;;;;;0.87;0.87;;;18.80;45.90;;;;;;4907589;28;20430;-72
2023/03/23 07:46:29;;;;;;;1.00;0.90;;;18.90;45.90;;;;;;4904741;28;20214;-72
2023/03/23 07:48:56;;;;;;;0.90;0.90;;;18.90;45.90;;;;;;4905226;28;20290;-72
2023/03/23 07:51:22;;;;;;;0.90;0.90;;;18.90;45.90;;;;;;4904830;29;20206;-72
2023/03/23 07:53:48;;;;;;;0.90;0.90;;;18.80;45.80;;;;;;4906303;28;20436;-72
2023/03/23 07:56:19;;;;;;;0.97;0.90;;;18.90;45.90;;;;;;4904241;28;20436;-72
2023/03/23 07:58:46;;;;;;;1.10;0.90;;;18.80;45.80;;;;;;4903643;29;20351;-71
2023/03/23 08:01:12;;;;;;;1.97;1.00;;;18.80;45.80;;;;;;4904812;28;20518;-72
2023/03/23 08:03:38;;;;;;;0.97;0.90;;;18.90;45.90;;;;;;4905631;28;20440;-72
2023/03/23 08:06:04;;;;;;;2.10;1.23;;;18.80;45.90;;;;;;4905625;29;20652;-72
2023/03/23 08:08:30;;;;;;;1.07;1.00;;;18.80;45.80;;;;;;4904749;28;20234;-72
2023/03/23 08:10:55;;;;;;;0.80;0.80;;;18.80;45.80;;;;;;4903144;28;21487;-72
2023/03/23 08:13:21;;;;;;;1.80;0.90;;;18.90;45.90;;;;;;4903234;28;20234;-72
2023/03/23 08:15:47;;;;;;;1.10;1.00;;;18.80;45.80;;;;;;4903950;29;20586;-73
2023/03/23 08:18:12;;;;;;;1.60;1.50;;;18.80;45.80;;;;;;4912637;28;20234;-73
2023/03/23 08:20:38;;;;;;;1.00;0.90;;;18.80;45.80;;;;;;4916651;28;20225;-72
2023/03/23 08:23:04;;;;;;;1.17;0.80;;;18.90;45.90;;;;;;4912695;28;20229;-73
2023/03/23 08:25:33;;;;;;;0.90;0.90;;;18.90;45.90;;;;;;4914314;28;20690;-73
2023/03/23 08:28:01;;;;;;;1.00;0.90;;;18.80;45.80;;;;;;4914203;28;20634;-72
2023/03/23 08:30:29;;;;;;;1.20;0.97;;;18.90;45.90;;;;;;4917911;28;21147;-73
2023/03/23 08:32:56;;;;;;;1.00;0.90;;;18.90;45.90;;;;;;4897393;29;20487;-73
2023/03/23 08:35:22;;;;;;;1.10;0.80;;;18.80;45.90;;;;;;4915157;28;20508;-73
2023/03/23 08:37:51;;;;;;;0.80;0.80;;;18.80;45.80;;;;;;4914042;28;21340;-72
2023/03/23 08:40:19;;;;;;;1.53;0.87;;;18.90;45.90;;;;;;4912847;28;20219;-72
2023/03/23 08:42:47;;;;;;;0.73;0.73;;;18.90;45.90;;;;;;4914737;28;20788;-73
2023/03/23 08:45:16;;;;;;;0.70;0.70;;;18.80;45.80;;;;;;4915931;28;21017;-73
2023/03/23 08:47:42;;;;;;;1.20;0.90;;;18.90;45.90;;;;;;4916115;28;20447;-73
2023/03/23 08:50:14;;;;;;;0.93;0.80;;;18.90;45.90;;;;;;4915777;28;20455;-73
2023/03/23 08:52:41;;;;;;;2.30;0.90;;;18.90;45.90;;;;;;4914849;28;20450;-73
2023/03/23 08:55:08;;;;;;;1.00;0.90;;;18.80;45.80;;;;;;4916349;28;20476;-72
2023/03/23 08:57:35;;;;;;;0.80;0.80;;;18.90;45.90;;;;;;4912370;28;20527;-73
2023/03/23 09:00:13;;;;;;;1.30;1.20;;;18.90;45.90;;;;;;4915406;28;20447;-73
2023/03/23 09:02:40;;;;;;;0.97;0.90;;;18.90;45.90;;;;;;4913856;28;20797;-73
2023/03/23 09:05:06;;;;;;;0.80;0.80;;;18.90;45.90;;;;;;4914633;28;20454;-73
2023/03/23 09:07:32;;;;;;;0.90;0.80;;;18.90;45.90;;;;;;4897273;28;21471;-72
2023/03/23 09:09:57;;;;;;;0.90;0.90;;;18.90;45.80;;;;;;4914071;28;20478;-73
2023/03/23 09:12:23;;;;;;;1.10;1.00;;;18.90;45.80;;;;;;4903647;28;20232;-73
2023/03/23 09:14:49;;;;;;;2.87;0.90;;;18.90;45.90;;;;;;4914584;28;20222;-73
2023/03/23 09:17:14;;;;;;;0.80;0.80;;;18.80;45.70;;;;;;4912364;28;20309;-72
2023/03/23 09:19:41;;;;;;;0.83;0.80;;;18.80;45.70;;;;;;4914563;28;20291;-73
2023/03/23 09:22:06;;;;;;;0.70;0.70;;;18.80;45.70;;;;;;4906820;28;20237;-73
2023/03/23 09:24:32;;;;;;;0.80;0.70;;;18.90;45.80;;;;;;4911122;28;20472;-72
2023/03/23 09:26:58;;;;;;;0.90;0.80;;;18.80;45.70;;;;;;4916023;28;20218;-72
2023/03/23 09:29:25;;;;;;;0.90;0.80;;;18.90;45.90;;;;;;4917515;28;20228;-73
2023/03/23 09:31:50;;;;;;;1.10;0.80;;;18.90;45.80;;;;;;4916428;28;20447;-73
2023/03/23 09:34:17;;;;;;;0.80;0.80;;;18.80;45.70;;;;;;4918430;28;20482;-72
2023/03/23 09:36:43;;;;;;;2.33;0.80;;;18.80;45.70;;;;;;4919645;28;20251;-73
2023/03/23 09:39:11;;;;;;;0.73;0.73;;;18.90;45.80;;;;;;4908045;28;20447;-73
2023/03/23 09:42:12;;;;;;;0.83;0.83;;;18.90;45.70;;;;;;4908688;28;20574;-72
2023/03/23 09:44:43;;;;;;;0.80;0.70;;;18.80;45.70;;;;;;4911466;28;21417;-72
2023/03/23 09:47:15;;;;;;;0.80;0.80;;;18.90;45.80;;;;;;4913871;28;20439;-72
2023/03/23 09:49:48;;;;;;;1.00;0.90;;;18.90;45.80;;;;;;4898447;29;20860;-72
2023/03/23 09:52:15;;;;;;;0.83;0.80;;;18.90;45.80;;;;;;4905794;28;22046;-72
2023/03/23 09:54:53;;;;;;;0.70;0.70;;;18.80;45.70;;;;;;4906743;28;20451;-71
2023/03/23 09:57:19;;;;;;;1.53;0.90;;;18.80;45.70;;;;;;4908340;28;20502;-73
2023/03/23 09:59:55;;;;;;;0.80;0.80;;;18.90;45.90;;;;;;4917364;28;20439;-72
2023/03/23 10:02:34;;;;;;;0.70;0.70;;;18.80;45.70;;;;;;4911027;29;20231;-72
2023/03/23 10:05:34;;;;;;;1.20;0.80;;;18.80;45.70;;;;;;4898049;28;20542;-72
2023/03/23 10:08:02;;;;;;;0.80;0.80;;;18.90;45.80;;;;;;4903325;28;20446;-73
2023/03/23 10:10:45;;;;;;;0.80;0.80;;;18.90;45.90;;;;;;4904103;29;20543;-73
2023/03/23 10:13:26;;;;;;;1.00;0.80;;;18.90;45.90;;;;;;4900875;29;20950;-72
2023/03/23 10:15:54;;;;;;;0.90;0.70;;;18.90;45.90;;;;;;4902549;28;20435;-72
2023/03/23 10:18:22;;;;;;;0.80;0.70;;;18.80;45.80;;;;;;4897795;28;20447;-72
2023/03/23 10:20:57;;;;;;;0.80;0.80;;;18.80;45.80;;;;;;4900798;28;20477;-72
2023/03/23 10:23:45;;;;;;;1.17;1.07;;;18.80;45.80;;;;;;4887451;28;20428;-72
2023/03/23 10:26:42;;;;;;;1.00;0.83;;;18.80;45.80;;;;;;4905585;28;20462;-72
2023/03/23 10:29:30;;;;;;;1.00;0.90;;;18.80;45.80;;;;;;4906521;28;20478;-72
2023/03/23 10:32:04;;;;;;;0.80;0.80;;;18.80;45.80;;;;;;4909725;28;20465;-72
2023/03/23 10:34:38;;;;;;;0.80;0.73;;;18.80;45.90;;;;;;4911778;28;20434;-72
2023/03/23 10:37:12;;;;;;;0.80;0.80;;;18.80;45.90;;;;;;4911376;28;20442;-72
2023/03/23 10:39:51;;;;;;;0.70;0.70;;;18.80;45.90;;;;;;4912517;28;20530;-72
2023/03/23 10:42:32;;;;;;;0.70;0.70;;;18.80;45.80;;;;;;4908410;28;20442;-72
2023/03/23 10:45:00;;;;;;;0.80;0.80;;;18.80;46.70;;;;;;4911751;28;20451;-72
2023/03/23 10:47:26;;;;;;;2.03;1.00;;;18.80;45.80;;;;;;4918173;28;20467;-72
2023/03/23 10:50:02;;;;;;;0.80;0.73;;;18.80;45.90;;;;;;4915729;28;20475;-72
2023/03/23 10:52:42;;;;;;;1.37;0.80;;;18.80;45.90;;;;;;4910701;28;21719;-72
2023/03/23 10:55:17;;;;;;;0.70;0.70;;;18.80;45.90;;;;;;4910086;29;20487;-72
2023/03/23 10:57:59;;;;;;;0.80;0.80;;;18.80;45.90;;;;;;4910829;28;21154;-72
2023/03/23 11:00:28;;;;;;;0.80;0.80;;;18.80;45.90;;;;;;4909567;28;20450;-72
2023/03/23 11:03:05;;;;;;;2.40;1.10;;;18.80;46.00;;;;;;4914741;29;20444;-72
2023/03/23 11:05:43;;;;;;;0.80;0.80;;;18.80;46.00;;;;;;4913298;28;20435;-72
2023/03/23 11:08:16;;;;;;;0.70;0.70;;;18.80;46.00;;;;;;4915742;28;20475;-72
2023/03/23 11:10:50;;;;;;;0.80;0.80;;;18.80;46.00;;;;;;4913536;28;20985;-72
2023/03/23 11:13:17;;;;;;;0.90;0.73;;;18.80;46.00;;;;;;4913045;28;22677;-72
2023/03/23 11:15:46;;;;;;;0.73;0.73;;;18.80;46.00;;;;;;4916112;28;20443;-72
2023/03/23 11:18:37;;;;;;;0.70;0.60;;;18.80;46.00;;;;;;4911256;28;21018;-72
2023/03/23 11:21:05;;;;;;;0.70;0.70;;;18.80;45.90;;;;;;4916007;28;20442;-72
2023/03/23 11:23:41;;;;;;;0.80;0.70;;;18.80;46.00;;;;;;4901588;29;21505;-72
2023/03/23 11:26:28;;;;;;;0.87;0.80;;;18.70;45.90;;;;;;4913889;28;20441;-73
2023/03/23 11:29:20;;;;;;;1.03;0.80;;;18.80;46.00;;;;;;4914965;28;21363;-73
2023/03/23 11:31:50;;;;;;;0.77;0.70;;;18.80;46.00;;;;;;4909562;28;20491;-72
2023/03/23 11:34:35;;;;;;;0.73;0.73;;;18.80;46.00;;;;;;4910536;28;20452;-72
2023/03/23 11:37:03;;;;;;;2.03;0.70;;;18.80;46.00;;;;;;4909083;28;20451;-72
2023/03/23 11:39:34;;;;;;;1.00;0.80;;;18.80;46.00;;;;;;4909551;28;20434;-72
2023/03/23 11:42:11;;;;;;;0.80;0.70;;;18.70;45.90;;;;;;4908497;28;20523;-72
2023/03/23 11:44:44;;;;;;;1.17;0.70;;;18.70;45.80;;;;;;4912848;28;20490;-72
2023/03/23 11:47:35;;;;;;;1.53;0.93;;;18.70;45.80;;;;;;4907647;28;20431;-72
2023/03/23 11:50:20;;;;;;;1.00;0.80;;;18.70;45.90;;;;;;4907481;29;20435;-72
2023/03/23 11:53:25;;;;;;;2.00;1.10;;;18.70;45.90;;;;;;4909075;28;20632;-72
2023/03/23 11:56:13;;;;;;;0.97;0.90;;;18.70;45.90;;;;;;4908485;29;20989;-72
2023/03/23 11:58:40;;;;;;;0.80;0.80;;;18.70;45.90;;;;;;4910086;28;20451;-72
2023/03/23 12:01:35;;;;;;;0.93;0.80;;;18.70;45.90;;;;;;4911182;28;20451;-72
2023/03/23 12:04:21;;;;;;;0.90;0.70;;;18.70;45.90;;;;;;4908934;29;20467;-72
2023/03/23 12:07:10;;;;;;;0.77;0.77;;;18.70;45.90;;;;;;4907502;28;20500;-72
2023/03/23 12:09:46;;;;;;;0.97;0.87;;;18.70;45.90;;;;;;4909082;28;20925;-72
2023/03/23 12:12:19;;;;;;;0.80;0.70;;;18.70;45.90;;;;;;4912100;28;20820;-72
2023/03/23 12:14:47;;;;;;;1.00;0.80;;;18.70;45.90;;;;;;4911911;28;20443;-72
2023/03/23 12:17:30;;;;;;;0.80;0.70;;;18.70;45.90;;;;;;4912014;28;20814;-72
2023/03/23 12:20:11;;;;;;;0.70;0.70;;;18.70;45.90;;;;;;4913754;29;20523;-72
2023/03/23 12:22:42;;;;;;;1.40;0.90;;;18.60;45.80;;;;;;4910512;28;20907;-72
2023/03/23 12:25:57;;;;;;;0.80;0.80;;;18.70;45.80;;;;;;4915914;28;20443;-72
2023/03/23 12:28:28;;;;;;;0.70;0.70;;;18.70;45.80;;;;;;4909884;28;20436;-72
2023/03/23 12:31:19;;;;;;;0.70;0.70;;;18.70;45.80;;;;;;4912631;29;20830;-72
2023/03/23 12:34:37;;;;;;;0.80;0.80;;;18.60;45.80;;;;;;4913013;28;20462;-72
2023/03/23 12:37:20;;;;;;;0.70;0.70;;;18.70;45.90;;;;;;4914278;28;21336;-72
2023/03/23 12:40:21;;;;;;;2.97;0.80;;;18.70;45.90;;;;;;4913804;28;20999;-72
2023/03/23 12:42:53;;;;;;;0.70;0.70;;;18.70;45.90;;;;;;4911974;28;20472;-72
2023/03/23 12:45:41;;;;;;;0.80;0.77;;;18.70;45.90;;;;;;4914100;28;20450;-72
2023/03/23 12:48:12;;;;;;;1.33;0.80;;;18.60;45.80;;;;;;4914453;28;20969;-72
2023/03/23 12:51:02;;;;;;;0.80;0.80;;;18.60;45.80;;;;;;4912329;28;20471;-72
2023/03/23 12:53:32;;;;;;;0.60;0.60;;;18.60;45.70;;;;;;4915728;28;21004;-72
2023/03/23 12:56:11;;;;;;;0.70;0.70;;;18.70;45.80;;;;;;4914904;28;20582;-72
2023/03/23 12:58:46;;;;;;;0.70;0.70;;;18.60;45.70;;;;;;4914322;28;20448;-72
2023/03/23 13:01:21;;;;;;;0.70;0.67;;;18.60;45.70;;;;;;4909604;28;20438;-72
2023/03/23 13:03:55;;;;;;;1.00;0.70;;;18.60;45.70;;;;;;4906435;28;20479;-72
2023/03/23 13:06:36;;;;;;;0.90;0.80;;;18.70;45.80;;;;;;4914262;28;20940;-72